sensor_id;sensor_type;location;lat;lon;timestamp;temperature;humidity
48946;DHT22;34999;50.940;3.998;2022-07-19T00:00:18;20.90;99.90
48946;DHT22;34999;50.940;3.998;2022-07-19T00:02:47;20.90;99.90
48946;DHT22;34999;50.940;3.998;2022-07-19T00:05:16;20.80;99.90
48946;DHT22;34999;50.940;3.998;2022-07-19T00:07:44;20.80;99.90
48946;DHT22;34999;50.940;3.998;2022-07-19T00:10:15;20.80;99.90
48946;DHT22;34999;50.940;3.998;2022-07-19T00:12:44;20.80;99.90
48946;DHT22;34999;50.940;3.998;2022-07-19T00:15:15;20.70;99.90
48946;DHT22;34999;50.940;3.998;2022-07-19T00:17:45;20.70;99.90
48946;DHT22;34999;50.940;3.998;2022-07-19T00:20:17;20.70;99.90
48946;DHT22;34999;50.940;3.998;2022-07-19T00:22:45;20.70;99.90
48946;DHT22;34999;50.940;3.998;2022-07-19T00:25:13;20.60;99.90
48946;DHT22;34999;50.940;3.998;2022-07-19T00:27:42;20.60;99.90
48946;DHT22;34999;50.940;3.998;2022-07-19T00:30:11;20.50;99.90
48946;DHT22;34999;50.940;3.998;2022-07-19T00:32:41;20.50;99.90
48946;DHT22;34999;50.940;3.998;2022-07-19T00:35:10;20.40;99.90
48946;DHT22;34999;50.940;3.998;2022-07-19T00:37:38;20.40;99.90
48946;DHT22;34999;50.940;3.998;2022-07-19T00:40:14;20.30;99.90
48946;DHT22;34999;50.940;3.998;2022-07-19T00:42:43;20.30;99.90
48946;DHT22;34999;50.940;3.998;2022-07-19T00:45:11;20.20;99.90
48946;DHT22;34999;50.940;3.998;2022-07-19T00:47:42;20.20;99.90
48946;DHT22;34999;50.940;3.998;2022-07-19T00:50:10;20.20;99.90
48946;DHT22;34999;50.940;3.998;2022-07-19T00:52:39;20.10;99.90
48946;DHT22;34999;50.940;3.998;2022-07-19T00:55:09;20.00;99.90
48946;DHT22;34999;50.940;3.998;2022-07-19T00:57:38;20.00;99.90
48946;DHT22;34999;50.940;3.998;2022-07-19T01:00:07;19.90;99.90
48946;DHT22;34999;50.940;3.998;2022-07-19T01:02:39;19.80;99.90
48946;DHT22;34999;50.940;3.998;2022-07-19T01:05:10;19.80;99.90
48946;DHT22;34999;50.940;3.998;2022-07-19T01:07:40;19.80;99.90
48946;DHT22;34999;50.940;3.998;2022-07-19T01:10:10;19.70;99.90
48946;DHT22;34999;50.940;3.998;2022-07-19T01:12:39;19.70;99.90
48946;DHT22;34999;50.940;3.998;2022-07-19T01:15:15;19.60;99.90
48946;DHT22;34999;50.940;3.998;2022-07-19T01:17:44;19.60;99.90
48946;DHT22;34999;50.940;3.998;2022-07-19T01:20:15;19.60;99.90
48946;DHT22;34999;50.940;3.998;2022-07-19T01:22:46;19.50;99.90
48946;DHT22;34999;50.940;3.998;2022-07-19T01:25:17;19.50;99.90
48946;DHT22;34999;50.940;3.998;2022-07-19T01:27:47;19.50;99.90
48946;DHT22;34999;50.940;3.998;2022-07-19T01:30:18;19.50;99.90
48946;DHT22;34999;50.940;3.998;2022-07-19T01:32:48;19.40;99.90
48946;DHT22;34999;50.940;3.998;2022-07-19T01:35:17;19.40;99.90
48946;DHT22;34999;50.940;3.998;2022-07-19T01:37:47;19.30;99.90
48946;DHT22;34999;50.940;3.998;2022-07-19T01:40:17;19.30;99.90
48946;DHT22;34999;50.940;3.998;2022-07-19T01:42:46;19.20;99.90
48946;DHT22;34999;50.940;3.998;2022-07-19T01:45:16;19.20;99.90
48946;DHT22;34999;50.940;3.998;2022-07-19T01:47:46;19.20;99.90
48946;DHT22;34999;50.940;3.998;2022-07-19T01:50:16;19.10;99.90
48946;DHT22;34999;50.940;3.998;2022-07-19T01:52:46;19.10;99.90
48946;DHT22;34999;50.940;3.998;2022-07-19T01:55:17;19.10;99.90
48946;DHT22;34999;50.940;3.998;2022-07-19T01:57:46;19.10;99.90
48946;DHT22;34999;50.940;3.998;2022-07-19T02:00:15;19.10;99.90
48946;DHT22;34999;50.940;3.998;2022-07-19T02:02:44;19.10;99.90
48946;DHT22;34999;50.940;3.998;2022-07-19T02:05:13;19.10;99.90
48946;DHT22;34999;50.940;3.998;2022-07-19T02:07:47;19.00;99.90
48946;DHT22;34999;50.940;3.998;2022-07-19T02:10:17;19.00;99.90
48946;DHT22;34999;50.940;3.998;2022-07-19T02:12:45;18.90;99.90
48946;DHT22;34999;50.940;3.998;2022-07-19T02:15:13;18.90;99.90
48946;DHT22;34999;50.940;3.998;2022-07-19T02:17:42;18.80;99.90
48946;DHT22;34999;50.940;3.998;2022-07-19T02:20:11;18.80;99.90
48946;DHT22;34999;50.940;3.998;2022-07-19T02:22:40;18.80;99.90
48946;DHT22;34999;50.940;3.998;2022-07-19T02:25:11;18.70;99.90
48946;DHT22;34999;50.940;3.998;2022-07-19T02:27:40;18.70;99.90
48946;DHT22;34999;50.940;3.998;2022-07-19T02:30:10;18.70;99.90
48946;DHT22;34999;50.940;3.998;2022-07-19T02:32:39;18.70;99.90
48946;DHT22;34999;50.940;3.998;2022-07-19T02:35:08;18.70;99.90
48946;DHT22;34999;50.940;3.998;2022-07-19T02:37:38;18.70;99.90
48946;DHT22;34999;50.940;3.998;2022-07-19T02:40:08;18.70;99.90
48946;DHT22;34999;50.940;3.998;2022-07-19T02:42:38;18.70;99.90
48946;DHT22;34999;50.940;3.998;2022-07-19T02:45:06;18.60;99.90
48946;DHT22;34999;50.940;3.998;2022-07-19T02:47:38;18.60;99.90
48946;DHT22;34999;50.940;3.998;2022-07-19T02:50:07;18.60;99.90
48946;DHT22;34999;50.940;3.998;2022-07-19T02:52:35;18.60;99.90
48946;DHT22;34999;50.940;3.998;2022-07-19T02:55:05;18.60;99.90
48946;DHT22;34999;50.940;3.998;2022-07-19T02:57:33;18.50;99.90
48946;DHT22;34999;50.940;3.998;2022-07-19T03:00:03;18.50;99.90
48946;DHT22;34999;50.940;3.998;2022-07-19T03:02:34;18.50;99.90
48946;DHT22;34999;50.940;3.998;2022-07-19T03:05:02;18.50;99.90
48946;DHT22;34999;50.940;3.998;2022-07-19T03:07:30;18.40;99.90
48946;DHT22;34999;50.940;3.998;2022-07-19T03:09:59;18.40;99.90
48946;DHT22;34999;50.940;3.998;2022-07-19T03:12:27;18.30;99.90
48946;DHT22;34999;50.940;3.998;2022-07-19T03:14:56;18.30;99.90
48946;DHT22;34999;50.940;3.998;2022-07-19T03:17:26;18.30;99.90
48946;DHT22;34999;50.940;3.998;2022-07-19T03:19:54;18.30;99.90
48946;DHT22;34999;50.940;3.998;2022-07-19T03:22:22;18.20;99.90
48946;DHT22;34999;50.940;3.998;2022-07-19T03:24:51;18.20;99.90
48946;DHT22;34999;50.940;3.998;2022-07-19T03:27:19;18.20;99.90
48946;DHT22;34999;50.940;3.998;2022-07-19T03:29:48;18.20;99.90
48946;DHT22;34999;50.940;3.998;2022-07-19T03:32:17;18.20;99.90
48946;DHT22;34999;50.940;3.998;2022-07-19T03:34:47;18.20;99.90
48946;DHT22;34999;50.940;3.998;2022-07-19T03:37:15;18.10;99.90
48946;DHT22;34999;50.940;3.998;2022-07-19T03:39:44;18.10;99.90
48946;DHT22;34999;50.940;3.998;2022-07-19T03:42:12;18.10;99.90
48946;DHT22;34999;50.940;3.998;2022-07-19T03:44:41;18.10;99.90
48946;DHT22;34999;50.940;3.998;2022-07-19T03:47:09;18.00;99.90
48946;DHT22;34999;50.940;3.998;2022-07-19T03:49:37;18.00;99.90
48946;DHT22;34999;50.940;3.998;2022-07-19T03:52:07;18.00;99.90
48946;DHT22;34999;50.940;3.998;2022-07-19T03:54:44;18.00;99.90
48946;DHT22;34999;50.940;3.998;2022-07-19T03:57:12;17.90;99.90
48946;DHT22;34999;50.940;3.998;2022-07-19T03:59:40;17.90;99.90
48946;DHT22;34999;50.940;3.998;2022-07-19T04:02:09;17.90;99.90
48946;DHT22;34999;50.940;3.998;2022-07-19T04:05:15;17.90;99.90
48946;DHT22;34999;50.940;3.998;2022-07-19T04:08:00;17.90;99.90
48946;DHT22;34999;50.940;3.998;2022-07-19T04:10:29;17.90;99.90
48946;DHT22;34999;50.940;3.998;2022-07-19T04:12:57;17.90;99.90
48946;DHT22;34999;50.940;3.998;2022-07-19T04:15:26;17.90;99.90
48946;DHT22;34999;50.940;3.998;2022-07-19T04:17:54;17.90;99.90
48946;DHT22;34999;50.940;3.998;2022-07-19T04:20:23;17.90;99.90
48946;DHT22;34999;50.940;3.998;2022-07-19T04:22:51;18.00;99.90
48946;DHT22;34999;50.940;3.998;2022-07-19T04:25:22;18.00;99.90
48946;DHT22;34999;50.940;3.998;2022-07-19T04:27:50;18.10;99.90
48946;DHT22;34999;50.940;3.998;2022-07-19T04:30:19;18.10;99.90
48946;DHT22;34999;50.940;3.998;2022-07-19T04:32:50;18.20;99.90
48946;DHT22;34999;50.940;3.998;2022-07-19T04:35:19;18.30;99.90
48946;DHT22;34999;50.940;3.998;2022-07-19T04:37:47;18.30;99.90
48946;DHT22;34999;50.940;3.998;2022-07-19T04:40:15;18.40;99.90
48946;DHT22;34999;50.940;3.998;2022-07-19T04:42:46;18.50;99.90
48946;DHT22;34999;50.940;3.998;2022-07-19T04:45:14;18.50;99.90
48946;DHT22;34999;50.940;3.998;2022-07-19T04:47:42;18.60;99.90
48946;DHT22;34999;50.940;3.998;2022-07-19T04:50:11;18.70;99.90
48946;DHT22;34999;50.940;3.998;2022-07-19T04:52:39;18.70;99.90
48946;DHT22;34999;50.940;3.998;2022-07-19T04:55:08;18.80;99.90
48946;DHT22;34999;50.940;3.998;2022-07-19T04:57:37;18.80;99.90
48946;DHT22;34999;50.940;3.998;2022-07-19T05:00:11;18.90;99.90
48946;DHT22;34999;50.940;3.998;2022-07-19T05:02:42;18.90;99.90
48946;DHT22;34999;50.940;3.998;2022-07-19T05:05:11;19.00;99.90
48946;DHT22;34999;50.940;3.998;2022-07-19T05:07:41;19.20;99.90
48946;DHT22;34999;50.940;3.998;2022-07-19T05:10:11;19.40;99.90
48946;DHT22;34999;50.940;3.998;2022-07-19T05:12:40;19.50;99.90
48946;DHT22;34999;50.940;3.998;2022-07-19T05:15:12;19.70;99.90
48946;DHT22;34999;50.940;3.998;2022-07-19T05:17:42;19.80;99.90
48946;DHT22;34999;50.940;3.998;2022-07-19T05:20:13;20.00;99.90
48946;DHT22;34999;50.940;3.998;2022-07-19T05:22:43;20.10;99.90
48946;DHT22;34999;50.940;3.998;2022-07-19T05:25:15;20.30;99.90
48946;DHT22;34999;50.940;3.998;2022-07-19T05:27:44;20.50;99.90
48946;DHT22;34999;50.940;3.998;2022-07-19T05:30:13;20.70;99.90
48946;DHT22;34999;50.940;3.998;2022-07-19T05:32:42;20.90;99.90
48946;DHT22;34999;50.940;3.998;2022-07-19T05:35:10;21.10;99.90
48946;DHT22;34999;50.940;3.998;2022-07-19T05:37:38;21.40;99.90
48946;DHT22;34999;50.940;3.998;2022-07-19T05:40:08;21.70;99.90
48946;DHT22;34999;50.940;3.998;2022-07-19T05:42:37;21.90;99.90
48946;DHT22;34999;50.940;3.998;2022-07-19T05:45:05;22.10;99.90
48946;DHT22;34999;50.940;3.998;2022-07-19T05:47:35;22.30;99.90
48946;DHT22;34999;50.940;3.998;2022-07-19T05:50:04;22.60;99.90
48946;DHT22;34999;50.940;3.998;2022-07-19T05:52:33;22.80;99.90
48946;DHT22;34999;50.940;3.998;2022-07-19T05:55:04;23.20;99.90
48946;DHT22;34999;50.940;3.998;2022-07-19T05:57:33;23.40;99.90
48946;DHT22;34999;50.940;3.998;2022-07-19T06:00:03;23.70;99.90
48946;DHT22;34999;50.940;3.998;2022-07-19T06:02:32;23.80;99.90
48946;DHT22;34999;50.940;3.998;2022-07-19T06:05:02;24.00;99.90
48946;DHT22;34999;50.940;3.998;2022-07-19T06:07:30;24.30;99.90
48946;DHT22;34999;50.940;3.998;2022-07-19T06:09:58;24.40;99.90
48946;DHT22;34999;50.940;3.998;2022-07-19T06:12:31;24.60;99.90
48946;DHT22;34999;50.940;3.998;2022-07-19T06:18:07;25.00;99.90
48946;DHT22;34999;50.940;3.998;2022-07-19T06:20:37;25.20;99.90
48946;DHT22;34999;50.940;3.998;2022-07-19T06:23:05;25.50;99.90
48946;DHT22;34999;50.940;3.998;2022-07-19T06:25:33;25.70;99.90
48946;DHT22;34999;50.940;3.998;2022-07-19T06:28:02;25.90;99.90
48946;DHT22;34999;50.940;3.998;2022-07-19T06:30:30;26.10;99.90
48946;DHT22;34999;50.940;3.998;2022-07-19T06:32:59;26.40;99.90
48946;DHT22;34999;50.940;3.998;2022-07-19T06:35:27;26.60;99.90
48946;DHT22;34999;50.940;3.998;2022-07-19T06:37:57;26.80;99.90
48946;DHT22;34999;50.940;3.998;2022-07-19T06:40:26;27.00;99.90
48946;DHT22;34999;50.940;3.998;2022-07-19T06:42:54;27.20;99.90
48946;DHT22;34999;50.940;3.998;2022-07-19T06:45:22;27.50;99.90
48946;DHT22;34999;50.940;3.998;2022-07-19T06:47:51;27.90;99.90
48946;DHT22;34999;50.940;3.998;2022-07-19T06:50:22;28.10;99.90
48946;DHT22;34999;50.940;3.998;2022-07-19T06:53:09;28.20;99.90
48946;DHT22;34999;50.940;3.998;2022-07-19T06:55:38;28.50;99.90
48946;DHT22;34999;50.940;3.998;2022-07-19T06:58:06;28.70;99.90
48946;DHT22;34999;50.940;3.998;2022-07-19T07:00:34;28.90;99.90
48946;DHT22;34999;50.940;3.998;2022-07-19T07:03:03;29.00;99.90
48946;DHT22;34999;50.940;3.998;2022-07-19T07:05:32;29.10;99.90
48946;DHT22;34999;50.940;3.998;2022-07-19T07:08:00;29.30;99.90
48946;DHT22;34999;50.940;3.998;2022-07-19T07:10:30;29.50;99.90
48946;DHT22;34999;50.940;3.998;2022-07-19T07:12:59;29.90;99.90
48946;DHT22;34999;50.940;3.998;2022-07-19T07:15:27;30.10;99.90
48946;DHT22;34999;50.940;3.998;2022-07-19T07:17:56;30.30;99.90
48946;DHT22;34999;50.940;3.998;2022-07-19T07:20:24;30.50;99.90
48946;DHT22;34999;50.940;3.998;2022-07-19T07:22:53;30.70;99.90
48946;DHT22;34999;50.940;3.998;2022-07-19T07:25:21;30.90;99.90
48946;DHT22;34999;50.940;3.998;2022-07-19T07:27:50;31.00;99.90
48946;DHT22;34999;50.940;3.998;2022-07-19T07:30:19;31.30;99.90
48946;DHT22;34999;50.940;3.998;2022-07-19T07:32:48;31.60;99.90
48946;DHT22;34999;50.940;3.998;2022-07-19T07:35:16;31.50;99.90
48946;DHT22;34999;50.940;3.998;2022-07-19T07:37:44;31.90;99.90
48946;DHT22;34999;50.940;3.998;2022-07-19T07:40:13;32.20;99.90
48946;DHT22;34999;50.940;3.998;2022-07-19T07:42:41;32.60;99.90
48946;DHT22;34999;50.940;3.998;2022-07-19T07:45:11;32.60;99.90
48946;DHT22;34999;50.940;3.998;2022-07-19T07:47:41;32.90;99.90
48946;DHT22;34999;50.940;3.998;2022-07-19T07:50:12;33.30;99.90
48946;DHT22;34999;50.940;3.998;2022-07-19T07:52:40;33.50;99.90
48946;DHT22;34999;50.940;3.998;2022-07-19T07:55:09;33.70;99.90
48946;DHT22;34999;50.940;3.998;2022-07-19T07:57:56;33.90;99.90
48946;DHT22;34999;50.940;3.998;2022-07-19T08:00:28;34.10;99.90
48946;DHT22;34999;50.940;3.998;2022-07-19T08:02:57;34.10;99.90
48946;DHT22;34999;50.940;3.998;2022-07-19T08:05:26;34.60;99.90
48946;DHT22;34999;50.940;3.998;2022-07-19T08:07:55;34.90;99.90
48946;DHT22;34999;50.940;3.998;2022-07-19T08:10:28;35.40;99.90
48946;DHT22;34999;50.940;3.998;2022-07-19T08:12:58;35.20;99.30
48946;DHT22;34999;50.940;3.998;2022-07-19T08:15:35;35.40;99.60
48946;DHT22;34999;50.940;3.998;2022-07-19T08:18:04;36.20;98.90
48946;DHT22;34999;50.940;3.998;2022-07-19T08:20:33;36.60;98.70
48946;DHT22;34999;50.940;3.998;2022-07-19T08:23:01;36.70;97.00
48946;DHT22;34999;50.940;3.998;2022-07-19T08:25:29;36.60;97.40
48946;DHT22;34999;50.940;3.998;2022-07-19T08:27:59;36.70;97.20
48946;DHT22;34999;50.940;3.998;2022-07-19T08:30:28;37.00;97.90
48946;DHT22;34999;50.940;3.998;2022-07-19T08:33:17;37.60;96.20
48946;DHT22;34999;50.940;3.998;2022-07-19T08:35:46;37.50;96.30
48946;DHT22;34999;50.940;3.998;2022-07-19T08:38:21;37.90;96.20
48946;DHT22;34999;50.940;3.998;2022-07-19T08:40:52;38.10;95.20
48946;DHT22;34999;50.940;3.998;2022-07-19T08:43:22;38.00;94.80
48946;DHT22;34999;50.940;3.998;2022-07-19T08:45:51;38.40;94.80
48946;DHT22;34999;50.940;3.998;2022-07-19T08:48:21;38.60;94.00
48946;DHT22;34999;50.940;3.998;2022-07-19T08:50:50;38.90;93.00
48946;DHT22;34999;50.940;3.998;2022-07-19T08:53:20;39.10;93.10
48946;DHT22;34999;50.940;3.998;2022-07-19T08:55:49;39.70;93.00
48946;DHT22;34999;50.940;3.998;2022-07-19T08:58:18;40.10;92.50
48946;DHT22;34999;50.940;3.998;2022-07-19T09:00:46;39.90;91.70
48946;DHT22;34999;50.940;3.998;2022-07-19T09:03:14;39.80;90.60
48946;DHT22;34999;50.940;3.998;2022-07-19T09:05:44;39.80;90.00
48946;DHT22;34999;50.940;3.998;2022-07-19T09:08:14;39.90;88.80
48946;DHT22;34999;50.940;3.998;2022-07-19T09:10:45;39.90;89.00
48946;DHT22;34999;50.940;3.998;2022-07-19T09:13:35;40.10;86.20
48946;DHT22;34999;50.940;3.998;2022-07-19T09:16:05;39.90;85.30
48946;DHT22;34999;50.940;3.998;2022-07-19T09:18:35;40.20;85.80
48946;DHT22;34999;50.940;3.998;2022-07-19T09:21:06;39.90;85.40
48946;DHT22;34999;50.940;3.998;2022-07-19T09:23:35;39.90;85.70
48946;DHT22;34999;50.940;3.998;2022-07-19T09:26:06;39.70;82.00
48946;DHT22;34999;50.940;3.998;2022-07-19T09:28:35;39.60;83.40
48946;DHT22;34999;50.940;3.998;2022-07-19T09:31:04;40.00;81.80
48946;DHT22;34999;50.940;3.998;2022-07-19T09:33:34;39.90;79.10
48946;DHT22;34999;50.940;3.998;2022-07-19T09:36:12;39.80;80.60
48946;DHT22;34999;50.940;3.998;2022-07-19T09:38:40;40.40;80.60
48946;DHT22;34999;50.940;3.998;2022-07-19T09:41:13;40.90;80.00
48946;DHT22;34999;50.940;3.998;2022-07-19T09:43:52;41.00;77.70
48946;DHT22;34999;50.940;3.998;2022-07-19T09:46:30;40.90;76.50
48946;DHT22;34999;50.940;3.998;2022-07-19T09:49:03;40.70;75.90
48946;DHT22;34999;50.940;3.998;2022-07-19T09:51:35;40.70;75.60
48946;DHT22;34999;50.940;3.998;2022-07-19T09:54:05;40.50;74.90
48946;DHT22;34999;50.940;3.998;2022-07-19T09:56:38;40.30;74.20
48946;DHT22;34999;50.940;3.998;2022-07-19T09:59:06;40.20;75.70
48946;DHT22;34999;50.940;3.998;2022-07-19T10:01:35;40.30;74.00
48946;DHT22;34999;50.940;3.998;2022-07-19T10:04:43;40.10;72.60
48946;DHT22;34999;50.940;3.998;2022-07-19T10:07:51;40.30;73.40
48946;DHT22;34999;50.940;3.998;2022-07-19T10:10:21;40.60;72.70
48946;DHT22;34999;50.940;3.998;2022-07-19T10:12:50;40.40;72.80
48946;DHT22;34999;50.940;3.998;2022-07-19T10:15:19;40.60;74.70
48946;DHT22;34999;50.940;3.998;2022-07-19T10:17:58;40.80;72.60
48946;DHT22;34999;50.940;3.998;2022-07-19T10:20:29;40.70;72.20
48946;DHT22;34999;50.940;3.998;2022-07-19T10:23:02;40.70;72.00
48946;DHT22;34999;50.940;3.998;2022-07-19T10:25:42;40.60;71.60
48946;DHT22;34999;50.940;3.998;2022-07-19T10:28:31;40.80;72.10
48946;DHT22;34999;50.940;3.998;2022-07-19T10:31:28;40.90;72.60
48946;DHT22;34999;50.940;3.998;2022-07-19T10:33:59;40.50;70.80
48946;DHT22;34999;50.940;3.998;2022-07-19T10:36:38;40.20;70.70
48946;DHT22;34999;50.940;3.998;2022-07-19T10:39:25;39.90;69.50
48946;DHT22;34999;50.940;3.998;2022-07-19T10:42:16;39.80;71.30
48946;DHT22;34999;50.940;3.998;2022-07-19T10:45:10;40.30;68.20
48946;DHT22;34999;50.940;3.998;2022-07-19T10:47:58;40.70;69.50
48946;DHT22;34999;50.940;3.998;2022-07-19T10:50:46;40.20;69.80
48946;DHT22;34999;50.940;3.998;2022-07-19T10:56:28;40.60;68.70
48946;DHT22;34999;50.940;3.998;2022-07-19T10:58:58;40.80;67.60
48946;DHT22;34999;50.940;3.998;2022-07-19T11:01:28;40.80;67.40
48946;DHT22;34999;50.940;3.998;2022-07-19T11:04:21;40.90;66.90
48946;DHT22;34999;50.940;3.998;2022-07-19T11:06:50;40.80;66.60
48946;DHT22;34999;50.940;3.998;2022-07-19T11:09:21;40.90;66.90
48946;DHT22;34999;50.940;3.998;2022-07-19T11:11:53;41.10;68.90
48946;DHT22;34999;50.940;3.998;2022-07-19T11:14:21;41.10;67.70
48946;DHT22;34999;50.940;3.998;2022-07-19T11:16:59;41.30;66.30
48946;DHT22;34999;50.940;3.998;2022-07-19T11:19:28;41.20;65.60
48946;DHT22;34999;50.940;3.998;2022-07-19T11:22:00;41.00;64.80
48946;DHT22;34999;50.940;3.998;2022-07-19T11:24:29;40.60;64.90
48946;DHT22;34999;50.940;3.998;2022-07-19T11:27:02;40.30;65.70
48946;DHT22;34999;50.940;3.998;2022-07-19T11:29:52;40.40;64.20
48946;DHT22;34999;50.940;3.998;2022-07-19T11:32:22;40.70;67.00
48946;DHT22;34999;50.940;3.998;2022-07-19T11:34:55;40.50;64.00
48946;DHT22;34999;50.940;3.998;2022-07-19T11:37:25;40.30;62.90
48946;DHT22;34999;50.940;3.998;2022-07-19T11:39:54;40.30;63.50
48946;DHT22;34999;50.940;3.998;2022-07-19T11:42:36;40.40;64.10
48946;DHT22;34999;50.940;3.998;2022-07-19T11:45:26;40.60;65.20
48946;DHT22;34999;50.940;3.998;2022-07-19T11:47:57;40.20;64.80
48946;DHT22;34999;50.940;3.998;2022-07-19T11:50:26;40.50;63.50
48946;DHT22;34999;50.940;3.998;2022-07-19T11:52:56;40.50;63.60
48946;DHT22;34999;50.940;3.998;2022-07-19T11:55:27;40.20;61.70
48946;DHT22;34999;50.940;3.998;2022-07-19T11:57:57;39.90;65.00
48946;DHT22;34999;50.940;3.998;2022-07-19T12:00:26;39.90;63.60
48946;DHT22;34999;50.940;3.998;2022-07-19T12:02:56;39.70;63.10
48946;DHT22;34999;50.940;3.998;2022-07-19T12:05:26;39.70;64.40
48946;DHT22;34999;50.940;3.998;2022-07-19T12:07:58;39.80;63.30
48946;DHT22;34999;50.940;3.998;2022-07-19T12:10:40;39.70;62.60
48946;DHT22;34999;50.940;3.998;2022-07-19T12:13:12;39.60;63.50
48946;DHT22;34999;50.940;3.998;2022-07-19T12:15:52;39.40;64.00
48946;DHT22;34999;50.940;3.998;2022-07-19T12:18:22;39.10;65.00
48946;DHT22;34999;50.940;3.998;2022-07-19T12:21:14;38.90;63.50
48946;DHT22;34999;50.940;3.998;2022-07-19T12:23:43;38.90;63.80
48946;DHT22;34999;50.940;3.998;2022-07-19T12:26:11;38.70;63.80
48946;DHT22;34999;50.940;3.998;2022-07-19T12:29:01;38.60;64.10
48946;DHT22;34999;50.940;3.998;2022-07-19T12:31:44;38.40;64.40
48946;DHT22;34999;50.940;3.998;2022-07-19T12:34:13;38.40;64.40
48946;DHT22;34999;50.940;3.998;2022-07-19T12:36:41;38.50;64.00
48946;DHT22;34999;50.940;3.998;2022-07-19T12:39:20;38.40;63.50
48946;DHT22;34999;50.940;3.998;2022-07-19T12:42:03;38.50;66.50
48946;DHT22;34999;50.940;3.998;2022-07-19T12:44:34;38.60;65.40
48946;DHT22;34999;50.940;3.998;2022-07-19T12:47:03;38.60;63.60
48946;DHT22;34999;50.940;3.998;2022-07-19T12:49:54;38.70;65.60
48946;DHT22;34999;50.940;3.998;2022-07-19T12:52:33;38.90;64.60
48946;DHT22;34999;50.940;3.998;2022-07-19T12:55:01;38.60;64.90
48946;DHT22;34999;50.940;3.998;2022-07-19T12:57:30;38.50;64.80
48946;DHT22;34999;50.940;3.998;2022-07-19T13:00:02;38.70;65.50
48946;DHT22;34999;50.940;3.998;2022-07-19T13:02:31;38.80;66.40
48946;DHT22;34999;50.940;3.998;2022-07-19T13:05:00;38.90;65.20
48946;DHT22;34999;50.940;3.998;2022-07-19T13:07:29;38.90;63.50
48946;DHT22;34999;50.940;3.998;2022-07-19T13:09:58;38.80;63.90
48946;DHT22;34999;50.940;3.998;2022-07-19T13:12:26;38.90;63.30
48946;DHT22;34999;50.940;3.998;2022-07-19T13:14:54;39.00;63.40
48946;DHT22;34999;50.940;3.998;2022-07-19T13:17:24;39.00;63.00
48946;DHT22;34999;50.940;3.998;2022-07-19T13:19:54;38.90;63.40
48946;DHT22;34999;50.940;3.998;2022-07-19T13:22:23;39.00;62.20
48946;DHT22;34999;50.940;3.998;2022-07-19T13:24:54;39.00;62.10
48946;DHT22;34999;50.940;3.998;2022-07-19T13:27:42;39.00;64.80
48946;DHT22;34999;50.940;3.998;2022-07-19T13:30:12;39.10;64.80
48946;DHT22;34999;50.940;3.998;2022-07-19T13:32:42;39.20;63.60
48946;DHT22;34999;50.940;3.998;2022-07-19T13:35:10;39.20;63.80
48946;DHT22;34999;50.940;3.998;2022-07-19T13:37:39;39.00;64.10
48946;DHT22;34999;50.940;3.998;2022-07-19T13:40:08;39.20;61.60
48946;DHT22;34999;50.940;3.998;2022-07-19T13:42:37;39.20;61.20
48946;DHT22;34999;50.940;3.998;2022-07-19T13:45:06;39.10;61.00
48946;DHT22;34999;50.940;3.998;2022-07-19T13:47:34;38.90;63.60
48946;DHT22;34999;50.940;3.998;2022-07-19T13:50:07;38.70;61.80
48946;DHT22;34999;50.940;3.998;2022-07-19T13:52:35;38.90;62.60
48946;DHT22;34999;50.940;3.998;2022-07-19T13:55:04;39.00;62.90
48946;DHT22;34999;50.940;3.998;2022-07-19T13:57:33;39.10;62.40
48946;DHT22;34999;50.940;3.998;2022-07-19T14:00:02;39.40;64.40
48946;DHT22;34999;50.940;3.998;2022-07-19T14:02:32;39.60;63.70
48946;DHT22;34999;50.940;3.998;2022-07-19T14:05:01;39.50;62.30
48946;DHT22;34999;50.940;3.998;2022-07-19T14:07:33;39.40;61.20
48946;DHT22;34999;50.940;3.998;2022-07-19T14:10:02;39.50;61.30
48946;DHT22;34999;50.940;3.998;2022-07-19T14:12:31;39.70;59.80
48946;DHT22;34999;50.940;3.998;2022-07-19T14:14:59;39.70;60.90
48946;DHT22;34999;50.940;3.998;2022-07-19T14:17:29;39.60;59.60
48946;DHT22;34999;50.940;3.998;2022-07-19T14:19:57;39.60;61.00
48946;DHT22;34999;50.940;3.998;2022-07-19T14:22:28;39.70;60.60
48946;DHT22;34999;50.940;3.998;2022-07-19T14:24:58;39.90;58.40
48946;DHT22;34999;50.940;3.998;2022-07-19T14:27:26;39.90;59.20
48946;DHT22;34999;50.940;3.998;2022-07-19T14:29:55;40.10;59.30
48946;DHT22;34999;50.940;3.998;2022-07-19T14:32:24;40.10;59.00
48946;DHT22;34999;50.940;3.998;2022-07-19T14:34:52;40.20;56.70
48946;DHT22;34999;50.940;3.998;2022-07-19T14:37:21;40.30;58.40
48946;DHT22;34999;50.940;3.998;2022-07-19T14:39:55;40.30;56.70
48946;DHT22;34999;50.940;3.998;2022-07-19T14:42:26;40.10;56.00
48946;DHT22;34999;50.940;3.998;2022-07-19T14:44:56;40.00;56.20
48946;DHT22;34999;50.940;3.998;2022-07-19T14:47:25;40.10;58.70
48946;DHT22;34999;50.940;3.998;2022-07-19T14:49:53;40.30;58.00
48946;DHT22;34999;50.940;3.998;2022-07-19T14:52:21;40.50;56.10
48946;DHT22;34999;50.940;3.998;2022-07-19T14:54:50;40.50;57.80
48946;DHT22;34999;50.940;3.998;2022-07-19T14:57:19;40.60;56.20
48946;DHT22;34999;50.940;3.998;2022-07-19T14:59:48;40.30;55.90
48946;DHT22;34999;50.940;3.998;2022-07-19T15:02:17;40.40;56.10
48946;DHT22;34999;50.940;3.998;2022-07-19T15:04:46;40.60;55.70
48946;DHT22;34999;50.940;3.998;2022-07-19T15:07:14;40.40;54.50
48946;DHT22;34999;50.940;3.998;2022-07-19T15:09:43;40.40;55.80
48946;DHT22;34999;50.940;3.998;2022-07-19T15:12:11;40.40;55.00
48946;DHT22;34999;50.940;3.998;2022-07-19T15:14:43;40.10;55.10
48946;DHT22;34999;50.940;3.998;2022-07-19T15:17:13;40.00;55.60
48946;DHT22;34999;50.940;3.998;2022-07-19T15:19:42;40.10;54.30
48946;DHT22;34999;50.940;3.998;2022-07-19T15:22:10;40.20;54.00
48946;DHT22;34999;50.940;3.998;2022-07-19T15:24:39;40.20;54.90
48946;DHT22;34999;50.940;3.998;2022-07-19T15:27:10;40.40;54.20
48946;DHT22;34999;50.940;3.998;2022-07-19T15:29:38;40.60;55.00
48946;DHT22;34999;50.940;3.998;2022-07-19T15:32:08;40.50;53.60
48946;DHT22;34999;50.940;3.998;2022-07-19T15:34:38;40.30;53.40
48946;DHT22;34999;50.940;3.998;2022-07-19T15:37:07;40.30;55.20
48946;DHT22;34999;50.940;3.998;2022-07-19T15:39:38;40.30;54.70
48946;DHT22;34999;50.940;3.998;2022-07-19T15:42:06;40.40;54.40
48946;DHT22;34999;50.940;3.998;2022-07-19T15:44:35;40.20;52.80
48946;DHT22;34999;50.940;3.998;2022-07-19T15:47:05;40.20;52.90
48946;DHT22;34999;50.940;3.998;2022-07-19T15:49:34;40.30;53.50
48946;DHT22;34999;50.940;3.998;2022-07-19T15:52:04;40.30;53.10
48946;DHT22;34999;50.940;3.998;2022-07-19T15:54:32;40.30;54.50
48946;DHT22;34999;50.940;3.998;2022-07-19T15:57:00;40.50;54.80
48946;DHT22;34999;50.940;3.998;2022-07-19T15:59:29;40.30;53.30